Time;durP1;ratioP1;P1;durP2;ratioP2;P2;SDS_P1;SDS_P2;PMS_P1;PMS_P2;Temp;Humidity;BMP_temperature;BMP_pressure;BME280_temperature;BME280_humidity;BME280_pressure;Samples;Min_cycle;Max_cycle;Signal;HPM_P1;HPM_P2
2024/01/20 00:00:29;;;;;;;15.63;10.20;;;0.60;99.90;;;;;;5034069;28;20183;-69
2024/01/20 00:02:55;;;;;;;13.60;9.93;;;0.60;99.90;;;;;;5035769;28;20189;-72
2024/01/20 00:05:20;;;;;;;12.10;9.23;;;0.60;99.90;;;;;;5035846;28;20997;-69
2024/01/20 00:07:46;;;;;;;15.20;10.00;;;0.50;99.90;;;;;;5034715;28;20268;-71
2024/01/20 00:10:12;;;;;;;13.80;10.03;;;0.50;99.90;;;;;;5018524;28;20216;-69
2024/01/20 00:12:39;;;;;;;15.83;9.63;;;0.50;99.90;;;;;;5036794;28;20186;-72
2024/01/20 00:15:06;;;;;;;12.70;8.67;;;0.50;99.90;;;;;;5036579;28;20579;-71
2024/01/20 00:17:32;;;;;;;14.77;9.93;;;0.50;99.90;;;;;;5035758;28;20790;-70
2024/01/20 00:19:57;;;;;;;13.20;8.43;;;0.50;99.90;;;;;;5034932;28;20984;-72
2024/01/20 00:22:23;;;;;;;14.37;8.60;;;0.50;99.90;;;;;;5035867;28;20558;-70
2024/01/20 00:24:49;;;;;;;15.40;9.97;;;0.40;99.90;;;;;;5035249;28;20182;-71
2024/01/20 00:27:14;;;;;;;12.73;8.90;;;0.40;99.90;;;;;;5036356;28;20273;-69
2024/01/20 00:29:40;;;;;;;13.27;8.90;;;0.40;99.90;;;;;;5035449;28;20189;-69
2024/01/20 00:32:06;;;;;;;13.53;8.40;;;0.40;99.90;;;;;;5036237;28;21106;-70
2024/01/20 00:34:31;;;;;;;14.57;8.63;;;0.30;99.90;;;;;;5035994;28;20215;-70
2024/01/20 00:37:00;;;;;;;13.30;8.70;;;0.30;99.90;;;;;;5035719;28;20186;-71
2024/01/20 00:39:26;;;;;;;14.70;9.67;;;0.30;99.90;;;;;;5036329;28;20174;-71
2024/01/20 00:41:51;;;;;;;11.73;8.13;;;0.30;99.90;;;;;;5034441;28;20420;-70
2024/01/20 00:44:17;;;;;;;13.80;9.07;;;0.30;99.90;;;;;;5036641;28;20885;-69
2024/01/20 00:46:42;;;;;;;12.13;9.10;;;0.30;99.90;;;;;;5034721;28;20318;-70
2024/01/20 00:49:08;;;;;;;16.97;10.77;;;0.30;99.90;;;;;;5035863;28;20190;-69
2024/01/20 00:51:34;;;;;;;14.50;9.33;;;0.30;99.90;;;;;;5002422;28;20183;-68
2024/01/20 00:54:00;;;;;;;15.37;9.30;;;0.20;99.90;;;;;;5002433;28;20265;-70
2024/01/20 00:56:25;;;;;;;15.20;8.63;;;0.30;99.90;;;;;;5034980;28;20432;-70
2024/01/20 00:58:51;;;;;;;12.90;8.50;;;0.20;99.90;;;;;;5034583;28;20260;-69
2024/01/20 01:01:17;;;;;;;13.97;9.10;;;0.20;99.90;;;;;;5032508;28;20269;-71
2024/01/20 01:03:42;;;;;;;12.27;8.57;;;0.20;99.90;;;;;;5034119;28;20188;-70
2024/01/20 01:06:08;;;;;;;14.77;9.43;;;0.20;99.90;;;;;;5035658;28;20226;-70
2024/01/20 01:08:35;;;;;;;15.00;9.77;;;0.20;99.90;;;;;;5035404;28;20217;-68
2024/01/20 01:11:01;;;;;;;12.83;9.27;;;0.20;99.90;;;;;;5034525;28;20191;-69
2024/01/20 01:13:26;;;;;;;15.30;9.03;;;0.10;99.90;;;;;;5035849;28;20455;-70
2024/01/20 01:15:52;;;;;;;13.00;9.23;;;0.10;99.90;;;;;;5033241;28;20200;-70
2024/01/20 01:18:18;;;;;;;14.97;9.67;;;0.10;99.90;;;;;;5035752;28;20209;-69
2024/01/20 01:20:43;;;;;;;13.60;9.47;;;0.10;99.90;;;;;;5034227;28;20209;-69
2024/01/20 01:23:09;;;;;;;18.03;11.00;;;0.10;99.90;;;;;;5035302;28;20217;-71
2024/01/20 01:25:35;;;;;;;13.60;9.83;;;0.10;99.90;;;;;;5034973;28;20198;-70
2024/01/20 01:28:01;;;;;;;12.33;8.43;;;0.10;99.90;;;;;;5034596;28;20221;-70
2024/01/20 01:30:26;;;;;;;16.80;9.80;;;0.10;99.90;;;;;;5035491;28;20721;-71
2024/01/20 01:32:52;;;;;;;12.37;8.60;;;0.10;99.90;;;;;;5034061;28;20421;-70
2024/01/20 01:35:18;;;;;;;12.13;7.83;;;0.10;99.90;;;;;;5017013;28;20876;-70
2024/01/20 01:37:43;;;;;;;15.03;9.30;;;0.10;99.90;;;;;;5034526;28;20564;-70
2024/01/20 01:40:10;;;;;;;16.23;8.70;;;0.10;99.90;;;;;;5035643;28;20274;-71
2024/01/20 01:42:35;;;;;;;15.83;9.57;;;0.10;99.90;;;;;;5034715;28;20647;-72
2024/01/20 01:45:01;;;;;;;17.30;10.57;;;0.10;99.90;;;;;;5034154;28;20494;-70
2024/01/20 01:47:27;;;;;;;17.40;9.60;;;0.10;99.90;;;;;;5035895;28;20203;-71
2024/01/20 01:49:53;;;;;;;11.20;8.43;;;0.10;99.90;;;;;;5016119;28;20182;-71
2024/01/20 01:52:20;;;;;;;16.97;9.50;;;0.10;99.90;;;;;;5034557;28;20432;-70
2024/01/20 01:54:46;;;;;;;13.20;8.70;;;0.10;99.90;;;;;;5033968;28;20178;-72
2024/01/20 01:57:14;;;;;;;12.70;9.67;;;0.10;99.90;;;;;;5033640;28;20421;-69
2024/01/20 01:59:40;;;;;;;13.50;8.80;;;0.10;99.90;;;;;;5033761;28;20437;-69
2024/01/20 02:02:06;;;;;;;13.43;8.97;;;0.10;99.90;;;;;;5033785;28;20432;-69
2024/01/20 02:04:32;;;;;;;12.20;9.07;;;0.10;99.90;;;;;;5034024;28;20480;-72
2024/01/20 02:06:58;;;;;;;15.93;9.07;;;0.10;99.90;;;;;;5033348;28;20265;-71
2024/01/20 02:09:24;;;;;;;14.13;8.40;;;0.10;99.90;;;;;;5034102;28;20191;-70
2024/01/20 02:11:51;;;;;;;16.27;9.20;;;0.10;99.90;;;;;;5033548;28;20432;-70
2024/01/20 02:14:19;;;;;;;14.50;9.43;;;0.10;99.90;;;;;;5034558;28;20432;-70
2024/01/20 02:16:45;;;;;;;11.50;8.60;;;0.00;99.90;;;;;;5032375;28;20452;-70
2024/01/20 02:19:11;;;;;;;12.50;8.70;;;0.00;99.90;;;;;;5031108;28;20449;-70
2024/01/20 02:21:38;;;;;;;13.77;8.23;;;0.00;99.90;;;;;;5033206;28;20185;-72
2024/01/20 02:24:05;;;;;;;13.43;8.37;;;0.00;99.90;;;;;;5014610;28;20193;-72
2024/01/20 02:26:31;;;;;;;15.83;8.80;;;0.00;99.90;;;;;;5032948;28;20938;-71
2024/01/20 02:28:56;;;;;;;12.97;9.30;;;0.00;99.90;;;;;;5033342;28;20417;-71
2024/01/20 02:31:22;;;;;;;13.33;8.97;;;0.00;99.90;;;;;;5032528;28;20186;-70
2024/01/20 02:33:48;;;;;;;10.70;7.30;;;0.00;99.90;;;;;;5031741;28;20186;-70
2024/01/20 02:36:13;;;;;;;14.47;8.90;;;0.00;99.90;;;;;;5032587;28;20190;-71
2024/01/20 02:38:39;;;;;;;13.67;8.33;;;0.00;99.90;;;;;;5032843;28;20186;-71
2024/01/20 02:41:05;;;;;;;13.27;9.40;;;-0.10;99.90;;;;;;5033237;28;20189;-71
2024/01/20 02:43:30;;;;;;;14.60;8.33;;;-0.10;99.90;;;;;;5033401;28;20225;-71
2024/01/20 02:45:56;;;;;;;12.80;7.87;;;-0.10;99.90;;;;;;5015314;28;20243;-70
2024/01/20 02:48:24;;;;;;;12.93;8.73;;;-0.10;99.90;;;;;;5032604;28;20209;-71
2024/01/20 02:50:49;;;;;;;11.10;7.67;;;-0.10;99.90;;;;;;5031704;28;20248;-71
2024/01/20 02:53:15;;;;;;;11.07;8.20;;;-0.10;99.90;;;;;;5032786;28;20451;-70
2024/01/20 02:55:40;;;;;;;15.03;9.30;;;-0.10;99.90;;;;;;5031135;28;20260;-70
2024/01/20 02:58:07;;;;;;;10.97;8.00;;;-0.10;99.90;;;;;;5032592;28;20178;-72
2024/01/20 03:00:32;;;;;;;14.47;8.30;;;-0.10;99.90;;;;;;5032003;28;20277;-69
2024/01/20 03:02:58;;;;;;;11.40;8.30;;;-0.10;99.90;;;;;;5032350;28;20508;-70
2024/01/20 03:05:24;;;;;;;16.53;8.50;;;-0.10;99.90;;;;;;5032526;28;20185;-70
2024/01/20 03:07:49;;;;;;;14.57;8.70;;;-0.10;99.90;;;;;;5032547;28;20265;-69
2024/01/20 03:10:15;;;;;;;14.40;8.67;;;-0.10;99.90;;;;;;5032874;28;20201;-70
2024/01/20 03:12:41;;;;;;;11.40;8.70;;;-0.20;99.90;;;;;;5031908;28;20261;-69
2024/01/20 03:15:10;;;;;;;14.33;9.10;;;-0.20;99.90;;;;;;4993377;28;1118791;-70
2024/01/20 03:17:35;;;;;;;13.10;8.23;;;-0.20;99.90;;;;;;5032221;28;20228;-71
2024/01/20 03:20:01;;;;;;;18.87;8.77;;;-0.20;99.90;;;;;;5033065;28;20568;-71
2024/01/20 03:22:27;;;;;;;12.70;8.80;;;-0.20;99.90;;;;;;5033034;28;20193;-70
2024/01/20 03:24:52;;;;;;;11.97;8.20;;;-0.20;99.90;;;;;;5015055;28;20249;-69
2024/01/20 03:27:18;;;;;;;12.33;8.20;;;-0.20;99.90;;;;;;5033509;28;20218;-69
2024/01/20 03:29:44;;;;;;;10.30;7.87;;;-0.20;99.90;;;;;;5031913;28;20211;-70
2024/01/20 03:32:10;;;;;;;13.37;8.50;;;-0.20;99.90;;;;;;5032992;28;20482;-69
2024/01/20 03:34:37;;;;;;;13.67;7.70;;;-0.10;99.90;;;;;;5013978;28;20193;-72
2024/01/20 03:37:03;;;;;;;14.30;8.23;;;-0.20;99.90;;;;;;5032500;28;20430;-69
2024/01/20 03:39:28;;;;;;;14.07;9.63;;;-0.20;99.90;;;;;;5032450;28;20488;-69
2024/01/20 03:41:54;;;;;;;11.70;8.23;;;-0.20;99.90;;;;;;5033139;28;20463;-70
2024/01/20 03:44:20;;;;;;;13.40;7.57;;;-0.20;99.90;;;;;;5033745;28;20188;-71
2024/01/20 03:46:46;;;;;;;15.10;8.90;;;-0.10;99.90;;;;;;5032690;28;20173;-69
2024/01/20 03:49:12;;;;;;;15.70;8.37;;;-0.20;99.90;;;;;;5033368;28;20421;-71
2024/01/20 03:51:38;;;;;;;13.10;8.07;;;-0.10;99.90;;;;;;5014953;28;20185;-70
2024/01/20 03:54:04;;;;;;;12.70;8.30;;;-0.20;99.90;;;;;;5032550;28;20448;-69
2024/01/20 03:56:30;;;;;;;13.03;8.40;;;-0.20;99.90;;;;;;5031543;28;20265;-71
2024/01/20 03:58:56;;;;;;;13.93;7.97;;;-0.10;99.90;;;;;;5032945;28;20477;-71
2024/01/20 04:01:21;;;;;;;11.40;8.83;;;-0.20;99.90;;;;;;5014928;28;20822;-71
2024/01/20 04:03:47;;;;;;;15.23;8.00;;;-0.20;99.90;;;;;;5032880;28;20185;-71
2024/01/20 04:06:13;;;;;;;12.57;8.00;;;-0.20;99.90;;;;;;5032524;28;20194;-70
2024/01/20 04:08:38;;;;;;;14.07;8.50;;;-0.20;99.90;;;;;;5032845;28;20221;-72
2024/01/20 04:11:05;;;;;;;16.03;9.37;;;-0.20;99.90;;;;;;5032132;28;20424;-69
2024/01/20 04:13:31;;;;;;;11.60;8.40;;;-0.20;99.90;;;;;;5032603;28;20251;-69
2024/01/20 04:15:56;;;;;;;13.57;8.23;;;-0.20;99.90;;;;;;5032286;28;20444;-69
2024/01/20 04:18:22;;;;;;;12.97;8.20;;;-0.20;99.90;;;;;;5032428;28;20516;-70
2024/01/20 04:20:48;;;;;;;14.03;8.90;;;-0.30;99.90;;;;;;5032587;28;20194;-69
2024/01/20 04:23:13;;;;;;;13.23;8.73;;;-0.30;99.90;;;;;;5032574;28;20315;-69
2024/01/20 04:25:39;;;;;;;12.23;8.47;;;-0.30;99.90;;;;;;5030717;28;20179;-69
2024/01/20 04:28:05;;;;;;;15.70;8.93;;;-0.30;99.90;;;;;;5032344;28;20213;-71
2024/01/20 04:30:30;;;;;;;15.70;9.07;;;-0.30;99.90;;;;;;5032558;28;20592;-70
2024/01/20 04:32:56;;;;;;;15.50;7.90;;;-0.40;99.90;;;;;;5016403;28;20205;-71
2024/01/20 04:35:22;;;;;;;12.30;8.53;;;-0.40;99.90;;;;;;5031917;28;20182;-69
2024/01/20 04:37:47;;;;;;;12.97;8.60;;;-0.40;99.90;;;;;;5032413;28;20186;-71
2024/01/20 04:40:13;;;;;;;13.93;8.20;;;-0.40;99.90;;;;;;5032364;28;20789;-69
2024/01/20 04:42:39;;;;;;;13.57;9.10;;;-0.40;99.90;;;;;;5014182;28;20202;-70
2024/01/20 04:45:06;;;;;;;11.77;8.07;;;-0.40;99.90;;;;;;5031704;28;20213;-70
2024/01/20 04:47:33;;;;;;;14.20;9.17;;;-0.40;99.90;;;;;;5033428;28;20473;-72
2024/01/20 04:49:58;;;;;;;12.80;8.40;;;-0.40;99.90;;;;;;5035580;28;20420;-71
2024/01/20 04:52:24;;;;;;;13.80;8.70;;;-0.40;99.90;;;;;;5034932;28;21340;-69
2024/01/20 04:54:52;;;;;;;16.30;8.70;;;-0.40;99.90;;;;;;5035163;28;20425;-69
2024/01/20 04:57:19;;;;;;;11.73;7.90;;;-0.40;99.90;;;;;;5035514;28;20242;-70
2024/01/20 04:59:45;;;;;;;12.80;7.70;;;-0.40;99.90;;;;;;5034624;28;20489;-69
2024/01/20 05:02:11;;;;;;;11.90;7.80;;;-0.40;99.90;;;;;;5035882;28;20426;-69
2024/01/20 05:04:36;;;;;;;14.10;9.43;;;-0.40;99.90;;;;;;5017862;28;20182;-68
2024/01/20 05:07:02;;;;;;;13.33;8.37;;;-0.40;99.90;;;;;;5035558;28;20257;-69
2024/01/20 05:09:28;;;;;;;12.17;8.00;;;-0.40;99.90;;;;;;5035516;28;20182;-69
2024/01/20 05:11:53;;;;;;;13.17;7.57;;;-0.40;99.90;;;;;;5035642;28;20187;-71
2024/01/20 05:14:19;;;;;;;10.60;7.70;;;-0.40;99.90;;;;;;5035629;28;20192;-69
2024/01/20 05:16:45;;;;;;;14.57;9.37;;;-0.40;99.90;;;;;;5016215;28;20261;-71
2024/01/20 05:19:10;;;;;;;10.30;7.37;;;-0.40;99.90;;;;;;5017355;28;20245;-70
2024/01/20 05:21:37;;;;;;;14.03;8.30;;;-0.50;99.90;;;;;;5034515;28;20551;-70
2024/01/20 05:24:04;;;;;;;11.50;7.33;;;-0.50;99.90;;;;;;5035014;28;20216;-68
2024/01/20 05:26:30;;;;;;;16.13;7.63;;;-0.50;99.90;;;;;;5035180;28;20423;-71
2024/01/20 05:28:56;;;;;;;10.23;7.97;;;-0.50;99.90;;;;;;5034643;28;20541;-70
2024/01/20 05:31:24;;;;;;;10.93;7.40;;;-0.40;99.90;;;;;;5016986;28;20910;-70
2024/01/20 05:33:50;;;;;;;11.07;7.37;;;-0.50;99.90;;;;;;5035730;28;20506;-71
2024/01/20 05:36:16;;;;;;;12.83;6.73;;;-0.50;99.90;;;;;;5034191;28;20432;-70
2024/01/20 05:38:41;;;;;;;13.23;8.73;;;-0.50;99.90;;;;;;5035097;28;21066;-70
2024/01/20 05:41:08;;;;;;;11.90;7.47;;;-0.50;99.90;;;;;;5034801;28;20190;-69
2024/01/20 05:43:33;;;;;;;11.07;8.40;;;-0.50;99.90;;;;;;5034131;28;20190;-69
2024/01/20 05:46:03;;;;;;;10.67;7.10;;;-0.50;99.90;;;;;;5035110;28;20511;-71
2024/01/20 05:48:30;;;;;;;11.33;7.83;;;-0.50;99.90;;;;;;5034569;28;20205;-70
2024/01/20 05:50:56;;;;;;;13.70;7.47;;;-0.50;99.90;;;;;;5034159;28;20424;-71
2024/01/20 05:53:22;;;;;;;11.60;7.77;;;-0.50;99.90;;;;;;5034123;28;20437;-71
2024/01/20 05:55:47;;;;;;;10.57;7.73;;;-0.50;99.90;;;;;;5034671;28;20204;-71
2024/01/20 05:58:14;;;;;;;11.17;6.87;;;-0.50;99.90;;;;;;5033547;28;20321;-69
2024/01/20 06:00:39;;;;;;;11.77;8.07;;;-0.50;99.90;;;;;;5033616;28;20189;-69
2024/01/20 06:03:05;;;;;;;11.50;7.70;;;-0.50;99.90;;;;;;5033780;28;20416;-69
2024/01/20 06:05:31;;;;;;;12.93;7.10;;;-0.50;99.90;;;;;;5031550;28;20190;-70
2024/01/20 06:07:56;;;;;;;9.00;6.80;;;-0.50;99.90;;;;;;5034825;28;20222;-69
2024/01/20 06:10:22;;;;;;;12.17;8.03;;;-0.50;99.90;;;;;;5035122;28;20182;-69
2024/01/20 06:12:48;;;;;;;11.83;7.07;;;-0.60;99.90;;;;;;5034976;28;20201;-69
2024/01/20 06:15:14;;;;;;;10.60;7.23;;;-0.40;99.90;;;;;;5034906;28;20594;-71
2024/01/20 06:17:39;;;;;;;9.17;7.17;;;-0.60;99.90;;;;;;5034975;28;20204;-71
2024/01/20 06:20:06;;;;;;;10.83;7.20;;;-0.60;99.90;;;;;;5035741;28;20189;-68
2024/01/20 06:22:32;;;;;;;8.87;7.33;;;-0.60;99.90;;;;;;5033278;28;20256;-69
2024/01/20 06:24:58;;;;;;;12.47;6.73;;;-0.60;99.90;;;;;;5034698;28;20411;-69
2024/01/20 06:27:23;;;;;;;10.70;7.57;;;-0.60;99.90;;;;;;5034177;28;20467;-69
2024/01/20 06:29:49;;;;;;;11.03;7.50;;;-0.80;99.90;;;;;;5034757;28;20428;-70
2024/01/20 06:32:15;;;;;;;11.80;7.67;;;-0.60;99.90;;;;;;5034538;28;20726;-70
2024/01/20 06:34:41;;;;;;;12.13;8.00;;;-0.60;99.90;;;;;;5033741;28;20189;-70
2024/01/20 06:37:07;;;;;;;10.70;7.20;;;-0.60;99.90;;;;;;5034620;28;20420;-70
2024/01/20 06:39:32;;;;;;;11.27;7.83;;;-0.60;99.90;;;;;;5034028;28;20181;-69
2024/01/20 06:41:58;;;;;;;11.30;6.83;;;-0.60;99.90;;;;;;5034402;28;20224;-68
2024/01/20 06:44:24;;;;;;;11.40;7.00;;;-0.60;99.90;;;;;;5033692;28;20189;-69
2024/01/20 06:46:49;;;;;;;11.83;7.87;;;-0.60;99.90;;;;;;5016139;28;20217;-72
2024/01/20 06:49:15;;;;;;;13.90;8.43;;;-0.60;99.90;;;;;;5033819;28;20266;-70
2024/01/20 06:51:43;;;;;;;10.73;7.50;;;-0.60;99.90;;;;;;5033349;28;20182;-71
2024/01/20 06:54:09;;;;;;;14.87;7.37;;;-0.60;99.90;;;;;;5034020;28;20420;-72
2024/01/20 06:56:34;;;;;;;15.03;7.90;;;-0.60;99.90;;;;;;5033420;28;20443;-69
2024/01/20 06:59:00;;;;;;;10.13;7.20;;;-0.60;99.90;;;;;;5034267;28;20437;-69
2024/01/20 07:01:26;;;;;;;11.20;7.20;;;-0.60;99.90;;;;;;5015897;28;20186;-70
2024/01/20 07:03:51;;;;;;;13.43;9.20;;;-0.60;99.90;;;;;;5033807;28;20715;-71
2024/01/20 07:06:24;;;;;;;11.30;7.20;;;-0.90;99.90;;;;;;5032902;28;20189;-70
2024/01/20 07:08:50;;;;;;;11.83;7.00;;;-0.80;99.90;;;;;;5034820;28;20215;-69
2024/01/20 07:11:16;;;;;;;10.63;7.63;;;-0.60;99.90;;;;;;5034280;28;20444;-71
2024/01/20 07:13:42;;;;;;;11.13;7.27;;;-0.60;99.90;;;;;;5033968;28;20432;-69
2024/01/20 07:16:14;;;;;;;10.70;7.60;;;-0.60;99.90;;;;;;5033562;28;20206;-70
2024/01/20 07:18:40;;;;;;;14.17;7.70;;;-1.00;99.90;;;;;;5030662;28;20213;-70
2024/01/20 07:21:07;;;;;;;11.97;7.30;;;-0.60;99.90;;;;;;5032440;28;20888;-70
2024/01/20 07:23:32;;;;;;;13.20;7.83;;;-0.60;99.90;;;;;;5031041;28;20688;-71
2024/01/20 07:25:59;;;;;;;10.10;7.43;;;-0.60;99.90;;;;;;5029667;28;20444;-70
2024/01/20 07:28:26;;;;;;;11.50;7.10;;;-0.60;99.90;;;;;;5031863;28;20704;-70
2024/01/20 07:30:51;;;;;;;12.73;6.70;;;-0.60;99.90;;;;;;5029654;28;20429;-70
2024/01/20 07:33:17;;;;;;;10.70;6.73;;;-0.50;99.90;;;;;;5032532;28;20428;-69
2024/01/20 07:35:43;;;;;;;11.13;7.50;;;-0.50;99.90;;;;;;5031670;28;20450;-72
2024/01/20 07:38:09;;;;;;;12.20;8.10;;;-0.60;99.90;;;;;;5032401;28;20192;-71
2024/01/20 07:40:35;;;;;;;10.50;7.80;;;-0.50;99.90;;;;;;5032666;28;20876;-70
2024/01/20 07:43:00;;;;;;;10.43;6.83;;;-0.80;99.90;;;;;;5033591;28;20440;-69
2024/01/20 07:45:31;;;;;;;12.03;7.73;;;-0.60;99.90;;;;;;5032983;28;20559;-71
2024/01/20 07:47:57;;;;;;;12.03;7.83;;;-0.60;99.90;;;;;;5031347;28;20249;-71
2024/01/20 07:50:23;;;;;;;9.77;7.03;;;-0.50;99.90;;;;;;5030907;28;20431;-69
2024/01/20 07:52:49;;;;;;;12.20;7.83;;;-0.50;99.90;;;;;;5031565;28;20533;-71
2024/01/20 07:55:15;;;;;;;13.57;8.90;;;-0.50;99.90;;;;;;5030778;28;20186;-69
2024/01/20 07:57:40;;;;;;;12.37;8.50;;;-0.80;99.90;;;;;;5031469;28;20269;-69
2024/01/20 08:00:08;;;;;;;9.47;7.00;;;-0.50;99.90;;;;;;5031084;28;20867;-70
2024/01/20 08:02:34;;;;;;;11.40;7.10;;;-0.50;99.90;;;;;;5033047;28;20184;-69
2024/01/20 08:05:00;;;;;;;13.00;8.07;;;-0.50;99.90;;;;;;5032851;28;20660;-72
2024/01/20 08:07:26;;;;;;;11.77;7.10;;;-0.50;99.90;;;;;;5032516;28;21029;-69
2024/01/20 08:09:51;;;;;;;11.87;7.03;;;-0.40;99.90;;;;;;5031885;28;20523;-71
2024/01/20 08:12:17;;;;;;;13.90;7.87;;;-0.40;99.90;;;;;;5029369;28;20259;-69
2024/01/20 08:14:43;;;;;;;11.00;7.80;;;-0.40;99.90;;;;;;5031520;28;20209;-70
2024/01/20 08:17:09;;;;;;;12.97;8.00;;;-0.60;99.90;;;;;;5029891;28;20194;-71
2024/01/20 08:19:34;;;;;;;14.27;7.17;;;-0.30;99.90;;;;;;5031149;28;20190;-71
2024/01/20 08:22:00;;;;;;;10.60;7.03;;;-0.20;99.90;;;;;;5034710;28;20194;-69
2024/01/20 08:24:26;;;;;;;12.77;7.40;;;0.00;99.90;;;;;;5036095;28;20178;-68
2024/01/20 08:26:51;;;;;;;11.20;6.93;;;0.10;99.90;;;;;;5036450;28;20540;-69
2024/01/20 08:29:17;;;;;;;12.10;8.10;;;0.30;99.90;;;;;;5033806;28;20275;-71
2024/01/20 08:31:43;;;;;;;10.90;7.20;;;0.40;99.90;;;;;;5035686;28;20178;-69
2024/01/20 08:34:08;;;;;;;11.33;6.70;;;0.50;99.90;;;;;;5032178;28;21194;-72
2024/01/20 08:36:34;;;;;;;12.37;7.20;;;0.60;99.90;;;;;;5031678;28;20206;-69
2024/01/20 08:39:00;;;;;;;11.47;7.50;;;0.70;99.90;;;;;;5030634;28;20190;-70
2024/01/20 08:41:25;;;;;;;12.33;7.37;;;0.80;99.90;;;;;;5033327;28;20186;-68
2024/01/20 08:43:51;;;;;;;8.30;6.30;;;0.90;99.90;;;;;;5031623;28;20181;-70
2024/01/20 08:46:17;;;;;;;11.30;6.60;;;1.10;99.90;;;;;;5031433;28;20200;-70
2024/01/20 08:48:43;;;;;;;10.30;6.90;;;1.30;99.90;;;;;;5034467;28;20252;-73
2024/01/20 08:51:09;;;;;;;9.27;6.90;;;1.40;99.90;;;;;;5033220;28;20501;-72
2024/01/20 08:53:35;;;;;;;11.30;7.03;;;1.60;99.90;;;;;;5034925;28;20210;-69
2024/01/20 08:56:01;;;;;;;10.07;6.07;;;1.80;99.90;;;;;;5033727;28;20995;-71
2024/01/20 08:58:27;;;;;;;11.27;6.40;;;2.00;99.90;;;;;;5034871;28;20650;-71
2024/01/20 09:00:53;;;;;;;9.93;6.47;;;2.20;99.90;;;;;;5016674;28;20443;-70
2024/01/20 09:03:18;;;;;;;10.77;6.60;;;2.30;99.90;;;;;;5031823;28;20441;-70
2024/01/20 09:05:44;;;;;;;8.97;6.50;;;2.40;99.90;;;;;;5034126;28;20193;-70
2024/01/20 09:08:10;;;;;;;9.50;6.60;;;2.60;99.90;;;;;;5034514;28;20213;-69
2024/01/20 09:10:36;;;;;;;8.67;6.10;;;2.70;99.90;;;;;;5035636;28;20190;-68
2024/01/20 09:13:03;;;;;;;7.60;5.70;;;2.90;99.90;;;;;;5016963;28;20447;-70
2024/01/20 09:15:29;;;;;;;8.43;6.30;;;3.10;99.90;;;;;;5035051;28;20449;-70
2024/01/20 09:17:55;;;;;;;10.10;6.50;;;3.20;99.90;;;;;;5035050;28;20748;-71
2024/01/20 09:20:21;;;;;;;7.80;5.90;;;3.30;99.90;;;;;;5013172;28;20499;-72
2024/01/20 09:22:47;;;;;;;8.10;5.90;;;3.40;99.90;;;;;;5031508;28;20450;-71
2024/01/20 09:25:12;;;;;;;8.67;5.80;;;3.50;99.90;;;;;;5031834;28;20217;-71
2024/01/20 09:27:38;;;;;;;10.60;6.57;;;3.60;99.90;;;;;;5034950;28;21330;-70
2024/01/20 09:30:07;;;;;;;9.00;5.80;;;3.80;99.90;;;;;;5034640;28;20182;-71
2024/01/20 09:32:33;;;;;;;9.50;6.03;;;3.90;99.90;;;;;;5016366;28;20174;-71
2024/01/20 09:35:03;;;;;;;9.73;5.50;;;4.00;99.90;;;;;;5033567;28;20520;-71
2024/01/20 09:37:29;;;;;;;7.80;5.90;;;4.10;99.90;;;;;;5034996;28;20421;-71
2024/01/20 09:39:55;;;;;;;7.73;5.20;;;4.10;99.90;;;;;;5035347;28;20957;-71
2024/01/20 09:42:21;;;;;;;8.10;5.83;;;4.20;99.90;;;;;;5029775;28;20451;-73
2024/01/20 09:44:47;;;;;;;9.27;5.70;;;4.10;99.90;;;;;;5032417;28;20499;-74
2024/01/20 09:47:13;;;;;;;6.90;4.63;;;4.10;99.90;;;;;;5028578;28;20472;-73
2024/01/20 09:49:39;;;;;;;6.67;5.37;;;4.20;99.90;;;;;;5014533;28;20931;-74
2024/01/20 09:52:14;;;;;;;10.60;5.60;;;4.40;99.90;;;;;;5031095;28;20445;-75
2024/01/20 09:54:50;;;;;;;7.40;5.37;;;4.40;99.90;;;;;;5032903;28;20316;-73
2024/01/20 09:57:16;;;;;;;6.80;4.53;;;4.60;99.90;;;;;;5033551;28;21002;-72
2024/01/20 09:59:42;;;;;;;8.03;5.53;;;4.80;99.90;;;;;;5035336;28;20421;-72
2024/01/20 10:02:10;;;;;;;13.03;5.63;;;5.00;99.90;;;;;;5033953;28;20430;-76
2024/01/20 10:04:39;;;;;;;8.63;5.50;;;5.10;99.90;;;;;;5035819;28;20432;-73
2024/01/20 10:07:05;;;;;;;7.50;5.40;;;5.20;99.90;;;;;;5033271;28;20480;-73
2024/01/20 10:09:30;;;;;;;8.50;5.40;;;5.30;99.90;;;;;;5035720;28;20421;-76
2024/01/20 10:11:56;;;;;;;7.57;4.63;;;5.50;99.90;;;;;;5035132;28;20200;-72
2024/01/20 10:14:22;;;;;;;7.00;4.50;;;5.70;99.90;;;;;;5033906;28;20194;-73
2024/01/20 10:16:49;;;;;;;7.90;6.20;;;5.90;99.90;;;;;;5035233;28;20198;-76
2024/01/20 10:19:14;;;;;;;7.00;4.70;;;6.20;99.90;;;;;;5034007;28;20197;-70
2024/01/20 10:21:40;;;;;;;5.80;5.20;;;6.40;99.90;;;;;;5035490;28;20437;-71
2024/01/20 10:24:07;;;;;;;10.00;5.40;;;6.30;99.90;;;;;;5033593;28;20186;-75
2024/01/20 10:26:41;;;;;;;7.00;5.27;;;6.10;99.90;;;;;;5017179;28;20951;-71
2024/01/20 10:29:07;;;;;;;8.33;5.07;;;5.90;99.90;;;;;;5016437;28;21016;-72
2024/01/20 10:31:33;;;;;;;7.30;5.77;;;5.70;99.90;;;;;;5016678;28;20939;-74
2024/01/20 10:33:59;;;;;;;7.13;4.13;;;5.60;99.90;;;;;;5014684;28;20526;-72
2024/01/20 10:36:26;;;;;;;6.63;4.43;;;5.80;99.90;;;;;;5033292;28;20182;-74
2024/01/20 10:38:53;;;;;;;5.20;4.30;;;5.90;99.90;;;;;;5034814;28;20167;-74
2024/01/20 10:41:23;;;;;;;6.00;4.50;;;6.10;99.90;;;;;;5033525;28;20428;-75
2024/01/20 10:43:58;;;;;;;6.20;4.90;;;5.90;99.90;;;;;;5034618;28;20515;-75
2024/01/20 10:46:31;;;;;;;9.60;4.73;;;5.70;99.90;;;;;;5033327;28;20447;-76
2024/01/20 10:49:06;;;;;;;5.20;3.83;;;5.60;99.90;;;;;;5033282;28;20543;-75
2024/01/20 10:51:33;;;;;;;6.80;5.00;;;5.50;99.90;;;;;;5034335;28;21257;-70
2024/01/20 10:54:01;;;;;;;6.80;5.20;;;5.50;99.90;;;;;;5033245;28;20444;-73
2024/01/20 10:56:27;;;;;;;6.53;4.47;;;5.40;99.90;;;;;;5016606;28;20432;-74
2024/01/20 10:59:09;;;;;;;6.87;4.67;;;5.20;99.90;;;;;;5013529;28;20433;-72
2024/01/20 11:01:39;;;;;;;4.90;4.27;;;5.10;99.90;;;;;;5013544;28;20487;-73
2024/01/20 11:04:04;;;;;;;9.30;4.97;;;5.10;99.90;;;;;;5029292;28;20437;-75
2024/01/20 11:06:31;;;;;;;6.33;4.40;;;5.20;99.90;;;;;;5033154;28;20428;-71
2024/01/20 11:09:01;;;;;;;9.60;4.90;;;5.40;99.90;;;;;;5032485;28;20218;-71
2024/01/20 11:11:27;;;;;;;6.67;4.53;;;5.50;99.90;;;;;;5033208;28;20432;-71
2024/01/20 11:13:58;;;;;;;6.90;4.63;;;5.50;99.90;;;;;;5032388;28;21214;-76
2024/01/20 11:16:24;;;;;;;5.27;4.37;;;5.60;99.90;;;;;;5030887;28;20944;-73
2024/01/20 11:18:49;;;;;;;8.20;4.77;;;5.40;99.90;;;;;;5031926;28;20434;-73
2024/01/20 11:21:16;;;;;;;7.30;4.80;;;5.30;99.90;;;;;;5032028;28;20947;-76
2024/01/20 11:24:01;;;;;;;5.77;4.60;;;5.20;99.90;;;;;;5033167;28;20175;-72
2024/01/20 11:26:37;;;;;;;6.07;4.67;;;5.20;99.90;;;;;;5033045;28;20432;-71
2024/01/20 11:29:05;;;;;;;8.10;4.47;;;5.50;99.90;;;;;;5010471;28;20470;-72
2024/01/20 11:31:31;;;;;;;5.00;3.87;;;5.80;99.90;;;;;;5032957;28;20906;-73
2024/01/20 11:34:02;;;;;;;7.90;4.40;;;5.90;99.90;;;;;;5014124;28;20435;-73
2024/01/20 11:36:29;;;;;;;5.03;3.60;;;5.70;99.90;;;;;;5032956;28;20490;-71
2024/01/20 11:39:03;;;;;;;7.97;5.50;;;5.60;99.90;;;;;;5002778;28;20420;-75
2024/01/20 11:41:29;;;;;;;4.10;3.33;;;5.60;99.90;;;;;;5032776;28;20438;-73
2024/01/20 11:43:54;;;;;;;5.03;4.00;;;5.60;99.90;;;;;;5031169;28;20424;-71
2024/01/20 11:46:20;;;;;;;5.40;3.73;;;5.80;99.90;;;;;;5004477;28;20208;-74
2024/01/20 11:48:49;;;;;;;4.10;3.37;;;6.70;99.90;;;;;;5032381;28;20552;-71
2024/01/20 11:51:16;;;;;;;4.50;3.40;;;7.30;99.90;;;;;;5030899;28;20442;-74
2024/01/20 11:53:42;;;;;;;6.20;4.10;;;7.50;99.90;;;;;;5032951;28;20506;-73
2024/01/20 11:56:08;;;;;;;7.00;4.20;;;7.30;99.90;;;;;;5014884;28;20847;-74
2024/01/20 11:58:34;;;;;;;6.43;4.00;;;7.50;99.90;;;;;;5036568;28;20420;-73
2024/01/20 12:01:02;;;;;;;4.73;3.73;;;8.40;99.90;;;;;;5017726;28;20182;-73
2024/01/20 12:03:28;;;;;;;4.70;3.70;;;10.00;97.90;;;;;;5035962;28;20193;-75
2024/01/20 12:05:54;;;;;;;5.50;4.00;;;12.00;93.90;;;;;;5016036;28;20428;-75
2024/01/20 12:08:20;;;;;;;6.27;3.17;;;14.00;86.70;;;;;;5015686;28;20619;-74
2024/01/20 12:10:46;;;;;;;4.60;3.80;;;15.70;78.80;;;;;;5034757;28;20424;-71
2024/01/20 12:13:14;;;;;;;5.00;3.17;;;17.30;69.70;;;;;;5034991;28;20458;-74
2024/01/20 12:15:40;;;;;;;4.07;3.13;;;18.40;61.30;;;;;;5035000;28;20244;-74
2024/01/20 12:18:06;;;;;;;4.97;3.60;;;19.10;56.80;;;;;;5034164;28;20913;-71
2024/01/20 12:20:32;;;;;;;3.93;3.53;;;19.40;53.90;;;;;;5036217;28;20421;-72
2024/01/20 12:23:02;;;;;;;4.17;3.57;;;19.80;51.70;;;;;;5016622;28;21237;-70
2024/01/20 12:25:28;;;;;;;4.70;3.97;;;20.60;50.40;;;;;;4991245;28;20570;-71
2024/01/20 12:27:54;;;;;;;4.00;3.60;;;21.10;48.00;;;;;;5034569;28;21223;-70
2024/01/20 12:30:20;;;;;;;4.17;3.03;;;21.30;45.80;;;;;;5034727;28;20559;-74
2024/01/20 12:32:46;;;;;;;4.73;3.63;;;20.60;44.00;;;;;;5029592;28;20530;-73
2024/01/20 12:35:11;;;;;;;4.73;3.90;;;18.30;43.80;;;;;;5033648;28;20198;-72
2024/01/20 12:37:38;;;;;;;5.43;3.50;;;15.40;46.00;;;;;;5035666;28;20467;-72
2024/01/20 12:40:05;;;;;;;4.30;3.47;;;13.10;49.70;;;;;;5030943;28;20267;-74